createdAt,value
2017-01-08T00:00:10.142Z,99.99
2017-01-08T00:01:10.130Z,99.99
2017-01-08T00:02:10.113Z,99.99
2017-01-08T00:03:10.097Z,99.99
2017-01-08T00:04:10.082Z,99.99
2017-01-08T00:05:10.064Z,99.99
2017-01-08T00:06:10.049Z,99.99
2017-01-08T00:07:10.034Z,99.99
2017-01-08T00:08:10.044Z,99.99
2017-01-08T00:09:10.003Z,99.99
2017-01-08T00:10:09.988Z,99.99
2017-01-08T00:11:09.971Z,99.99
2017-01-08T00:12:09.956Z,99.99
2017-01-08T00:13:09.941Z,99.99
2017-01-08T00:14:09.924Z,99.99
2017-01-08T00:15:09.910Z,99.99
2017-01-08T00:16:09.893Z,99.99
2017-01-08T00:17:09.880Z,99.99
2017-01-08T00:18:09.861Z,99.99
2017-01-08T00:19:09.849Z,99.99
2017-01-08T00:20:09.830Z,99.99
2017-01-08T00:21:09.816Z,99.99
2017-01-08T00:22:09.801Z,99.99
2017-01-08T00:23:09.784Z,99.99
2017-01-08T00:24:09.769Z,99.99
2017-01-08T00:25:09.754Z,99.99
2017-01-08T00:26:09.737Z,99.99
2017-01-08T00:27:09.722Z,99.99
2017-01-08T00:28:09.705Z,99.99
2017-01-08T00:29:09.691Z,99.99
2017-01-08T00:30:09.675Z,99.99
2017-01-08T00:31:09.659Z,99.99
2017-01-08T00:32:09.645Z,99.99
2017-01-08T00:33:09.630Z,99.99
2017-01-08T00:34:09.613Z,99.99
2017-01-08T00:35:09.599Z,99.99
2017-01-08T00:36:09.582Z,99.99
2017-01-08T00:37:09.569Z,99.99
2017-01-08T00:38:09.551Z,99.99
2017-01-08T00:39:09.537Z,99.99
2017-01-08T00:40:09.521Z,99.99
2017-01-08T00:41:09.506Z,99.99
2017-01-08T00:42:09.489Z,99.99
2017-01-08T00:43:09.475Z,99.99
2017-01-08T00:44:09.459Z,99.99
2017-01-08T00:45:09.442Z,99.99
2017-01-08T00:46:09.429Z,99.99
2017-01-08T00:47:09.412Z,99.99
2017-01-08T00:48:09.784Z,99.99
2017-01-08T00:49:09.381Z,99.99
2017-01-08T00:50:09.370Z,99.99
2017-01-08T00:51:09.350Z,99.99
2017-01-08T00:52:09.336Z,99.99
2017-01-08T00:53:09.318Z,99.99
2017-01-08T00:54:09.319Z,99.99
2017-01-08T00:55:09.290Z,99.99
2017-01-08T00:56:09.272Z,99.99
2017-01-08T00:57:09.258Z,99.99
2017-01-08T00:58:09.242Z,99.99
2017-01-08T00:59:09.230Z,99.99
2017-01-08T01:00:09.209Z,99.99
2017-01-08T01:01:09.195Z,99.99
2017-01-08T01:02:09.181Z,99.99
2017-01-08T01:03:09.165Z,99.99
2017-01-08T01:04:09.149Z,99.99
2017-01-08T01:05:09.134Z,99.99
2017-01-08T01:06:09.120Z,99.99
2017-01-08T01:07:09.102Z,99.99
2017-01-08T01:08:09.095Z,99.99
2017-01-08T01:09:09.074Z,99.99
2017-01-08T01:10:09.057Z,99.99
2017-01-08T01:11:09.041Z,99.99
2017-01-08T01:12:09.027Z,99.99
2017-01-08T01:13:09.019Z,99.99
2017-01-08T01:14:08.995Z,99.99
2017-01-08T01:15:08.983Z,99.99
2017-01-08T01:16:08.966Z,99.99
2017-01-08T01:17:08.951Z,99.99
2017-01-08T01:18:08.934Z,99.99
2017-01-08T01:19:08.920Z,99.99
2017-01-08T01:20:08.905Z,99.99
2017-01-08T01:21:08.890Z,99.99
2017-01-08T01:22:08.875Z,99.99
2017-01-08T01:23:08.860Z,99.99
2017-01-08T01:24:09.231Z,99.99
2017-01-08T01:25:08.830Z,99.99
2017-01-08T01:26:08.812Z,99.99
2017-01-08T01:27:08.795Z,99.99
2017-01-08T01:28:08.782Z,99.99
2017-01-08T01:29:08.765Z,99.99
2017-01-08T01:30:08.756Z,99.99
2017-01-08T01:31:08.735Z,99.99
2017-01-08T01:32:08.720Z,99.99
2017-01-08T01:33:08.704Z,99.99
2017-01-08T01:34:08.690Z,99.99
2017-01-08T01:35:08.672Z,99.99
2017-01-08T01:36:08.658Z,99.99
2017-01-08T01:37:08.645Z,99.99
2017-01-08T01:38:08.630Z,99.99
2017-01-08T01:39:08.615Z,99.99
2017-01-08T01:40:08.597Z,99.99
2017-01-08T01:41:08.580Z,99.99
2017-01-08T01:42:08.565Z,99.99
2017-01-08T01:43:08.552Z,99.99
2017-01-08T01:44:08.535Z,99.99
2017-01-08T01:45:08.548Z,99.99
2017-01-08T01:46:08.507Z,99.99
2017-01-08T01:47:08.492Z,99.99
2017-01-08T01:48:08.475Z,99.99
2017-01-08T01:49:08.459Z,99.99
2017-01-08T01:50:08.447Z,99.99
2017-01-08T01:51:08.427Z,99.99
2017-01-08T01:52:08.804Z,99.99
2017-01-08T01:53:08.396Z,99.99
2017-01-08T01:54:08.382Z,99.99
2017-01-08T01:55:08.365Z,99.99
2017-01-08T01:56:08.352Z,99.99
2017-01-08T01:57:08.339Z,99.99
2017-01-08T01:58:08.319Z,99.99
2017-01-08T01:59:08.304Z,99.99
2017-01-08T02:00:08.288Z,99.99
2017-01-08T02:01:08.276Z,99.99
2017-01-08T02:02:08.259Z,99.99
2017-01-08T02:03:08.279Z,99.99
2017-01-08T02:04:08.228Z,99.99
2017-01-08T02:05:08.240Z,99.99
2017-01-08T02:06:08.195Z,99.99
2017-01-08T02:07:08.190Z,99.99
2017-01-08T02:08:08.167Z,99.99
2017-01-08T02:09:08.150Z,99.99
2017-01-08T02:10:08.136Z,99.99
2017-01-08T02:11:08.120Z,99.99
2017-01-08T02:12:08.104Z,99.99
2017-01-08T02:13:08.092Z,99.99
2017-01-08T02:14:08.073Z,99.99
2017-01-08T02:15:08.057Z,99.99
2017-01-08T02:16:08.049Z,99.99
2017-01-08T02:17:08.027Z,99.99
2017-01-08T02:18:08.014Z,99.99
2017-01-08T02:19:07.997Z,99.99
2017-01-08T02:20:07.982Z,99.99
2017-01-08T02:21:07.966Z,99.99
2017-01-08T02:22:07.973Z,99.99
2017-01-08T02:23:07.935Z,99.99
2017-01-08T02:24:07.921Z,99.99
2017-01-08T02:25:07.904Z,99.99
2017-01-08T02:26:08.278Z,99.99
2017-01-08T02:27:07.880Z,99.99
2017-01-08T02:28:07.859Z,99.99
2017-01-08T02:29:07.844Z,99.99
2017-01-08T02:30:07.828Z,99.99
2017-01-08T02:31:07.814Z,99.99
2017-01-08T02:32:07.796Z,99.99
2017-01-08T02:33:07.781Z,99.99
2017-01-08T02:34:07.767Z,99.99
2017-01-08T02:35:07.751Z,99.99
2017-01-08T02:36:07.734Z,99.99
2017-01-08T02:37:07.720Z,99.99
2017-01-08T02:38:07.703Z,99.99
2017-01-08T02:39:07.689Z,99.99
2017-01-08T02:40:07.674Z,99.99
2017-01-08T02:41:07.662Z,99.99
2017-01-08T02:42:07.647Z,99.99
2017-01-08T02:43:07.627Z,99.99
2017-01-08T02:44:07.611Z,99.99
2017-01-08T02:45:07.597Z,99.99
2017-01-08T02:46:07.583Z,99.99
2017-01-08T02:47:07.565Z,99.99
2017-01-08T02:48:07.549Z,99.99
2017-01-08T02:49:07.537Z,99.99
2017-01-08T02:50:07.520Z,99.99
2017-01-08T02:51:07.504Z,99.99
2017-01-08T02:52:07.489Z,99.99
2017-01-08T02:53:07.472Z,99.99
2017-01-08T02:54:07.458Z,99.99
2017-01-08T02:55:07.828Z,99.99
2017-01-08T02:56:07.429Z,99.99
2017-01-08T02:57:07.412Z,99.99
2017-01-08T02:58:07.398Z,99.99
2017-01-08T02:59:07.381Z,99.99
2017-01-08T03:00:07.369Z,99.99
2017-01-08T03:01:07.349Z,99.99
2017-01-08T03:02:07.336Z,99.99
2017-01-08T03:03:07.319Z,99.99
2017-01-08T03:04:07.302Z,99.99
2017-01-08T03:05:07.289Z,99.99
2017-01-08T03:06:07.277Z,99.99
2017-01-08T03:07:07.259Z,99.99
2017-01-08T03:08:07.243Z,99.99
2017-01-08T03:09:07.235Z,99.99
2017-01-08T03:10:07.210Z,99.99
2017-01-08T03:11:07.195Z,99.99
2017-01-08T03:12:07.179Z,99.99
2017-01-08T03:13:07.168Z,99.99
2017-01-08T03:14:07.152Z,99.99
2017-01-08T03:15:07.131Z,99.99
2017-01-08T03:16:07.117Z,99.99
2017-01-08T03:17:07.104Z,99.99
2017-01-08T03:18:07.086Z,99.99
2017-01-08T03:19:07.068Z,99.99
2017-01-08T03:20:07.054Z,99.99
2017-01-08T03:21:07.037Z,99.99
2017-01-08T03:22:07.025Z,99.99
2017-01-08T03:23:07.006Z,99.99
2017-01-08T03:24:06.991Z,99.57
2017-01-08T03:25:06.977Z,99.95
2017-01-08T03:26:06.963Z,99.99
2017-01-08T03:27:06.945Z,99.99
2017-01-08T03:28:06.927Z,99.95
2017-01-08T03:29:06.915Z,99.85
2017-01-08T03:30:06.896Z,99.99
2017-01-08T03:31:07.268Z,99.99
2017-01-08T03:32:06.866Z,99.99
2017-01-08T03:33:06.851Z,99.95
2017-01-08T03:34:06.834Z,99.76
2017-01-08T03:35:06.818Z,99.99
2017-01-08T03:36:06.807Z,99.99
2017-01-08T03:37:06.789Z,99.76
2017-01-08T03:38:06.775Z,99.66
2017-01-08T03:39:06.758Z,99.47
2017-01-08T03:40:06.747Z,99.38
2017-01-08T03:41:06.723Z,99.85
2017-01-08T03:42:06.713Z,99.76
2017-01-08T03:43:06.696Z,99.99
2017-01-08T03:44:06.682Z,99.47
2017-01-08T03:45:06.663Z,99.99
2017-01-08T03:46:06.649Z,99.99
2017-01-08T03:47:06.633Z,99.76
2017-01-08T03:48:06.615Z,99.85
2017-01-08T03:49:06.605Z,99.76
2017-01-08T03:50:06.587Z,99.99
2017-01-08T03:51:06.569Z,99.76
2017-01-08T03:52:06.554Z,99.85
2017-01-08T03:53:06.546Z,99.47
2017-01-08T03:54:06.525Z,99.47
2017-01-08T03:55:06.510Z,99.47
2017-01-08T03:56:06.491Z,99.28
2017-01-08T03:57:06.477Z,99.09
2017-01-08T03:58:06.461Z,99.38
2017-01-08T03:59:06.445Z,99.19
2017-01-08T04:00:06.429Z,99.66
2017-01-08T04:01:06.415Z,99.85
2017-01-08T04:02:06.399Z,99.85
2017-01-08T04:03:06.387Z,99.76
2017-01-08T04:04:06.367Z,99.66
2017-01-08T04:05:06.351Z,99.85
2017-01-08T04:06:06.336Z,99.38
2017-01-08T04:07:06.320Z,99.57
2017-01-08T04:08:06.305Z,99.66
2017-01-08T04:09:06.289Z,99.66
2017-01-08T04:10:06.293Z,99.76
2017-01-08T04:11:06.257Z,99.66
2017-01-08T04:12:06.244Z,99.66
2017-01-08T04:13:06.227Z,99.85
2017-01-08T04:14:06.211Z,99.99
2017-01-08T04:15:06.196Z,99.99
2017-01-08T04:16:06.179Z,99.57
2017-01-08T04:17:06.165Z,99.99
2017-01-08T04:18:06.148Z,99.95
2017-01-08T04:19:06.138Z,99.95
2017-01-08T04:20:06.119Z,99.99
2017-01-08T04:21:06.103Z,99.99
2017-01-08T04:22:06.120Z,99.99
2017-01-08T04:23:06.071Z,99.99
2017-01-08T04:24:06.056Z,99.99
2017-01-08T04:25:06.041Z,99.99
2017-01-08T04:26:06.025Z,99.99
2017-01-08T04:27:06.011Z,99.99
2017-01-08T04:28:05.996Z,99.99
2017-01-08T04:29:05.980Z,99.99
2017-01-08T04:30:05.964Z,99.99
2017-01-08T04:31:05.955Z,99.99
2017-01-08T04:32:05.933Z,99.99
2017-01-08T04:33:05.918Z,99.99
2017-01-08T04:34:05.903Z,99.99
2017-01-08T04:35:05.887Z,99.99
2017-01-08T04:36:05.873Z,99.99
2017-01-08T04:37:05.856Z,99.99
2017-01-08T04:38:05.842Z,99.99
2017-01-08T04:39:05.825Z,99.99
2017-01-08T04:40:05.814Z,99.99
2017-01-08T04:41:05.794Z,99.99
2017-01-08T04:42:05.782Z,99.99
2017-01-08T04:43:05.765Z,99.99
2017-01-08T04:44:05.749Z,99.99
2017-01-08T04:45:05.737Z,99.99
2017-01-08T04:46:05.717Z,99.99
2017-01-08T04:47:05.702Z,99.99
2017-01-08T04:48:05.695Z,99.99
2017-01-08T04:49:05.671Z,99.99
2017-01-08T04:50:05.657Z,99.99
2017-01-08T04:51:05.640Z,99.99
2017-01-08T04:52:05.627Z,99.99
2017-01-08T04:53:05.610Z,99.99
2017-01-08T04:54:05.596Z,99.66
2017-01-08T04:55:05.580Z,99.76
2017-01-08T04:56:05.565Z,99.19
2017-01-08T04:57:05.547Z,99.28
2017-01-08T04:58:05.534Z,98.71
2017-01-08T04:59:05.518Z,99.38
2017-01-08T05:00:05.505Z,99.19
2017-01-08T05:01:05.488Z,98.9
2017-01-08T05:02:05.473Z,99.28
2017-01-08T05:03:05.459Z,99.85
2017-01-08T05:04:05.444Z,99.99
2017-01-08T05:05:05.427Z,99.99
2017-01-08T05:06:05.417Z,99.47
2017-01-08T05:07:05.395Z,99.95
2017-01-08T05:08:05.381Z,99.99
2017-01-08T05:09:05.366Z,99.85
2017-01-08T05:10:05.352Z,99.99
2017-01-08T05:11:05.335Z,99.66
2017-01-08T05:12:05.320Z,99.47
2017-01-08T05:13:05.304Z,99.66
2017-01-08T05:14:05.292Z,99.66
2017-01-08T05:15:05.273Z,99.09
2017-01-08T05:16:05.257Z,99.09
2017-01-08T05:17:05.245Z,99.28
2017-01-08T05:18:05.615Z,99.28
2017-01-08T05:19:05.225Z,98.52
2017-01-08T05:20:05.197Z,98.33
2017-01-08T05:21:05.183Z,97.01
2017-01-08T05:22:05.166Z,97.77
2017-01-08T05:23:05.150Z,98.24
2017-01-08T05:24:05.136Z,98.43
2017-01-08T05:25:05.123Z,98.52
2017-01-08T05:26:05.106Z,96.45
2017-01-08T05:27:05.089Z,97.01
2017-01-08T05:28:05.075Z,95.78
2017-01-08T05:29:05.058Z,96.83
2017-01-08T05:30:05.041Z,97.39
2017-01-08T05:31:05.028Z,97.39
2017-01-08T05:32:05.011Z,97.67
2017-01-08T05:33:04.999Z,97.86
2017-01-08T05:34:04.980Z,98.52
2017-01-08T05:35:04.964Z,98.33
2017-01-08T05:36:04.949Z,99.09
2017-01-08T05:37:04.935Z,98.81
2017-01-08T05:38:04.918Z,98.9
2017-01-08T05:39:04.905Z,98.14
2017-01-08T05:40:04.892Z,96.26
2017-01-08T05:41:04.872Z,95.78
2017-01-08T05:42:04.855Z,96.54
2017-01-08T05:43:04.841Z,97.01
2017-01-08T05:44:04.825Z,96.35
2017-01-08T05:45:04.809Z,95.97
2017-01-08T05:46:04.793Z,96.07
2017-01-08T05:47:04.785Z,96.35
2017-01-08T05:48:04.763Z,96.35
2017-01-08T05:49:04.747Z,97.2
2017-01-08T05:50:04.731Z,97.01
2017-01-08T05:51:04.715Z,97.01
2017-01-08T05:52:04.700Z,97.2
2017-01-08T05:53:04.683Z,98.52
2017-01-08T05:54:04.683Z,98.52
2017-01-08T05:55:04.656Z,98.62
2017-01-08T05:56:04.636Z,99.09
2017-01-08T05:57:04.621Z,98.71
2017-01-08T05:58:04.605Z,99.85
2017-01-08T05:59:04.590Z,99.38
2017-01-08T06:00:04.574Z,99.66
2017-01-08T06:01:04.560Z,99.99
2017-01-08T06:02:04.544Z,99.99
2017-01-08T06:03:04.530Z,99.99
2017-01-08T06:04:04.513Z,99.99
2017-01-08T06:05:04.497Z,99.76
2017-01-08T06:06:04.484Z,99.76
2017-01-08T06:07:04.466Z,99.85
2017-01-08T06:08:04.452Z,99.99
2017-01-08T06:09:04.441Z,99.85
2017-01-08T06:10:04.421Z,99.95
2017-01-08T06:11:04.404Z,99.99
2017-01-08T06:12:04.389Z,99.99
2017-01-08T06:13:04.374Z,99.99
2017-01-08T06:14:04.357Z,99.99
2017-01-08T06:15:04.343Z,99.99
2017-01-08T06:16:04.327Z,99.99
2017-01-08T06:17:04.315Z,99.99
2017-01-08T06:18:04.296Z,99.99
2017-01-08T06:19:04.281Z,99.99
2017-01-08T06:20:04.269Z,99.99
2017-01-08T06:21:04.249Z,99.99
2017-01-08T06:22:04.236Z,99.99
2017-01-08T06:23:04.218Z,99.99
2017-01-08T06:24:04.205Z,99.76
2017-01-08T06:25:04.187Z,99.99
2017-01-08T06:26:04.173Z,99.99
2017-01-08T06:27:04.156Z,99.99
2017-01-08T06:28:04.143Z,99.99
2017-01-08T06:29:04.128Z,99.99
2017-01-08T06:30:04.110Z,99.99
2017-01-08T06:31:04.095Z,99.99
2017-01-08T06:32:04.077Z,99.99
2017-01-08T06:33:04.063Z,99.99
2017-01-08T06:34:04.047Z,99.99
2017-01-08T06:35:04.032Z,99.99
2017-01-08T06:36:04.018Z,99.99
2017-01-08T06:37:03.999Z,99.99
2017-01-08T06:38:03.986Z,99.99
2017-01-08T06:39:03.968Z,99.66
2017-01-08T06:40:03.952Z,99.95
2017-01-08T06:41:03.936Z,99.57
2017-01-08T06:42:03.922Z,99.57
2017-01-08T06:43:03.908Z,99.99
2017-01-08T06:44:03.889Z,99.99
2017-01-08T06:45:03.877Z,99.99
2017-01-08T06:46:03.858Z,99.99
2017-01-08T06:47:03.846Z,99.99
2017-01-08T06:48:03.827Z,99.99
2017-01-08T06:49:03.812Z,99.99
2017-01-08T06:50:04.190Z,99.99
2017-01-08T06:51:03.782Z,99.99
2017-01-08T06:52:03.770Z,99.99
2017-01-08T06:53:03.749Z,99.99
2017-01-08T06:54:03.733Z,99.99
2017-01-08T06:55:04.103Z,99.99
2017-01-08T06:56:03.702Z,99.99
2017-01-08T06:57:03.686Z,99.99
2017-01-08T06:58:03.671Z,99.99
2017-01-08T06:59:03.654Z,99.99
2017-01-08T07:00:03.641Z,99.99
2017-01-08T07:01:03.629Z,99.99
2017-01-08T07:02:03.607Z,99.99
2017-01-08T07:03:03.592Z,99.99
2017-01-08T07:04:03.577Z,99.99
2017-01-08T07:05:03.563Z,99.99
2017-01-08T07:06:03.545Z,99.99
2017-01-08T07:07:03.530Z,99.99
2017-01-08T07:08:03.514Z,99.99
2017-01-08T07:09:03.498Z,99.99
2017-01-08T07:10:03.870Z,99.99
2017-01-08T07:11:03.466Z,99.99
2017-01-08T07:12:03.452Z,99.99
2017-01-08T07:13:03.434Z,99.99
2017-01-08T07:14:03.420Z,99.99
2017-01-08T07:15:03.401Z,99.99
2017-01-08T07:16:03.387Z,99.99
2017-01-08T07:17:03.371Z,99.99
2017-01-08T07:18:03.356Z,99.99
2017-01-08T07:19:03.340Z,99.99
2017-01-08T07:20:03.323Z,99.99
2017-01-08T07:21:03.309Z,99.99
2017-01-08T07:22:03.293Z,99.99
2017-01-08T07:23:03.277Z,99.99
2017-01-08T07:24:03.259Z,99.99
2017-01-08T07:25:03.246Z,99.99
2017-01-08T07:26:03.229Z,99.99
2017-01-08T07:27:03.210Z,99.99
2017-01-08T07:28:03.196Z,99.99
2017-01-08T07:29:03.179Z,99.99
2017-01-08T07:30:03.164Z,99.99
2017-01-08T07:31:03.148Z,99.99
2017-01-08T07:32:03.131Z,99.99
2017-01-08T07:33:03.115Z,99.99
2017-01-08T07:34:03.101Z,99.99
2017-01-08T07:35:03.085Z,99.99
2017-01-08T07:36:03.069Z,99.99
2017-01-08T07:37:03.053Z,99.99
2017-01-08T07:38:03.036Z,99.99
2017-01-08T07:39:03.021Z,99.99
2017-01-08T07:40:03.005Z,99.99
2017-01-08T07:41:02.990Z,99.99
2017-01-08T07:42:02.973Z,99.99
2017-01-08T07:43:02.956Z,99.99
2017-01-08T07:44:02.940Z,99.99
2017-01-08T07:45:02.925Z,99.99
2017-01-08T07:46:02.909Z,99.99
2017-01-08T07:47:02.894Z,99.99
2017-01-08T07:48:02.881Z,99.99
2017-01-08T07:49:02.868Z,99.99
2017-01-08T07:50:02.846Z,99.99
2017-01-08T07:51:02.830Z,99.99
2017-01-08T07:52:02.817Z,99.99
2017-01-08T07:53:02.799Z,99.99
2017-01-08T07:54:02.781Z,99.99
2017-01-08T07:55:02.769Z,99.99
2017-01-08T07:56:02.749Z,99.99
2017-01-08T07:57:02.733Z,99.99
2017-01-08T07:58:02.720Z,99.99
2017-01-08T07:59:02.701Z,99.99
2017-01-08T08:00:03.075Z,99.99
2017-01-08T08:01:02.669Z,99.99
2017-01-08T08:02:03.045Z,99.99
2017-01-08T08:03:02.640Z,99.99
2017-01-08T08:04:02.623Z,99.99
2017-01-08T08:05:02.608Z,99.99
2017-01-08T08:06:02.590Z,99.99
2017-01-08T08:07:02.573Z,99.99
2017-01-08T08:08:02.559Z,99.99
2017-01-08T08:09:02.543Z,99.99
2017-01-08T08:10:02.527Z,99.99
2017-01-08T08:11:02.511Z,99.99
2017-01-08T08:12:02.494Z,99.99
2017-01-08T08:13:02.479Z,99.99
2017-01-08T08:14:02.463Z,99.99
2017-01-08T08:15:02.446Z,99.99
2017-01-08T08:16:02.435Z,99.99
2017-01-08T08:17:02.414Z,99.99
2017-01-08T08:18:02.399Z,99.99
2017-01-08T08:19:02.385Z,99.99
2017-01-08T08:20:02.367Z,99.99
2017-01-08T08:21:02.352Z,99.99
2017-01-08T08:22:02.333Z,99.99
2017-01-08T08:23:02.318Z,99.99
2017-01-08T08:24:02.306Z,99.99
2017-01-08T08:25:02.289Z,99.99
2017-01-08T08:26:02.271Z,99.99
2017-01-08T08:27:02.256Z,99.99
2017-01-08T08:28:02.239Z,99.99
2017-01-08T08:29:02.222Z,99.99
2017-01-08T08:30:02.206Z,99.99
2017-01-08T08:31:02.192Z,99.99
2017-01-08T08:32:02.176Z,99.99
2017-01-08T08:33:02.160Z,99.99
2017-01-08T08:34:02.143Z,99.99
2017-01-08T08:35:02.529Z,99.99
2017-01-08T08:36:02.112Z,99.99
2017-01-08T08:37:02.096Z,99.99
2017-01-08T08:38:02.080Z,99.99
2017-01-08T08:39:02.065Z,99.99
2017-01-08T08:40:02.047Z,99.99
2017-01-08T08:41:02.032Z,99.99
2017-01-08T08:42:02.019Z,99.99
2017-01-08T08:43:02.002Z,99.99
2017-01-08T08:44:01.988Z,99.99
2017-01-08T08:45:01.973Z,99.99
2017-01-08T08:46:01.955Z,99.99
2017-01-08T08:47:01.942Z,99.99
2017-01-08T08:48:01.923Z,99.99
2017-01-08T08:49:01.909Z,99.99
2017-01-08T08:50:01.893Z,99.99
2017-01-08T08:51:01.879Z,99.99
2017-01-08T08:52:01.862Z,99.99
2017-01-08T08:53:01.847Z,99.99
2017-01-08T08:54:01.834Z,99.99
2017-01-08T08:55:01.815Z,99.99
2017-01-08T08:56:01.802Z,99.99
2017-01-08T08:57:01.784Z,99.99
2017-01-08T08:58:01.770Z,99.99
2017-01-08T08:59:01.754Z,99.99
2017-01-08T09:00:01.740Z,99.99
2017-01-08T09:01:01.726Z,99.99
2017-01-08T09:02:01.709Z,99.99
2017-01-08T09:03:01.693Z,99.99
2017-01-08T09:04:01.679Z,99.99
2017-01-08T09:05:01.667Z,99.99
2017-01-08T09:06:01.649Z,99.99
2017-01-08T09:07:01.632Z,99.99
2017-01-08T09:08:01.618Z,99.99
2017-01-08T09:09:01.606Z,99.99
2017-01-08T09:10:01.590Z,99.99
2017-01-08T09:11:01.574Z,99.99
2017-01-08T09:12:01.562Z,99.99
2017-01-08T09:13:01.549Z,99.99
2017-01-08T09:14:01.532Z,99.99
2017-01-08T09:15:01.517Z,99.99
2017-01-08T09:16:01.501Z,99.99
2017-01-08T09:17:01.489Z,99.99
2017-01-08T09:18:01.471Z,99.99
2017-01-08T09:19:01.457Z,99.99
2017-01-08T09:20:01.440Z,99.99
2017-01-08T09:21:01.429Z,99.99
2017-01-08T09:22:01.415Z,99.99
2017-01-08T09:23:01.399Z,99.99
2017-01-08T09:24:01.382Z,99.99
2017-01-08T09:25:01.369Z,99.99
2017-01-08T09:26:01.358Z,99.99
2017-01-08T09:27:01.338Z,99.99
2017-01-08T09:28:01.326Z,99.99
2017-01-08T09:29:01.312Z,99.99
2017-01-08T09:30:01.296Z,99.99
2017-01-08T09:31:01.280Z,99.99
2017-01-08T09:32:01.269Z,99.99
2017-01-08T09:33:01.253Z,99.99
2017-01-08T09:34:01.237Z,99.99
2017-01-08T09:35:01.224Z,99.99
2017-01-08T09:36:01.209Z,99.99
2017-01-08T09:37:01.195Z,99.99
2017-01-08T09:38:01.180Z,99.99
2017-01-08T09:39:01.554Z,99.99
2017-01-08T09:40:01.151Z,99.99
2017-01-08T09:41:01.523Z,99.99
2017-01-08T09:42:01.121Z,99.99
2017-01-08T09:43:01.109Z,99.99
2017-01-08T09:44:01.095Z,99.99
2017-01-08T09:45:01.078Z,99.99
2017-01-08T09:46:01.065Z,99.99
2017-01-08T09:47:01.050Z,99.99
2017-01-08T09:48:01.035Z,99.99
2017-01-08T09:49:01.019Z,99.99
2017-01-08T09:50:01.006Z,99.99
2017-01-08T09:51:00.991Z,99.99
2017-01-08T09:52:00.978Z,99.99
2017-01-08T09:53:00.965Z,99.99
2017-01-08T09:54:00.947Z,99.99
2017-01-08T09:55:00.934Z,99.99
2017-01-08T09:56:00.922Z,99.99
2017-01-08T09:57:00.904Z,99.99
2017-01-08T09:58:00.891Z,99.99
2017-01-08T09:59:00.874Z,99.99
2017-01-08T10:00:00.863Z,99.99
2017-01-08T10:01:00.845Z,99.99
2017-01-08T10:02:00.831Z,99.99
2017-01-08T10:03:00.818Z,99.99
2017-01-08T10:04:00.800Z,99.99
2017-01-08T10:05:00.790Z,99.99
2017-01-08T10:06:00.771Z,99.99
2017-01-08T10:07:00.759Z,99.99
2017-01-08T10:08:00.746Z,99.99
2017-01-08T10:09:00.731Z,99.99
2017-01-08T10:10:00.716Z,99.99
2017-01-08T10:11:00.705Z,99.71
2017-01-08T10:12:00.685Z,99.8
2017-01-08T10:13:00.674Z,99.99
2017-01-08T10:14:00.657Z,99.99
2017-01-08T10:15:00.643Z,99.99
2017-01-08T10:16:00.628Z,99.99
2017-01-08T10:17:00.613Z,99.99
2017-01-08T10:18:00.600Z,99.99
2017-01-08T10:19:00.583Z,99.99
2017-01-08T10:20:00.571Z,99.99
2017-01-08T10:21:00.556Z,99.99
2017-01-08T10:22:00.541Z,99.99
2017-01-08T10:23:00.526Z,99.99
2017-01-08T10:24:00.513Z,99.99
2017-01-08T10:25:00.499Z,99.99
2017-01-08T10:26:00.486Z,99.99
2017-01-08T10:27:00.474Z,99.99
2017-01-08T10:28:00.457Z,98.67
2017-01-08T10:29:00.441Z,98.58
2017-01-08T10:30:00.813Z,99.33
2017-01-08T10:31:00.412Z,99.99
2017-01-08T10:32:00.398Z,99.8
2017-01-08T10:33:00.384Z,99.99
2017-01-08T10:34:00.369Z,99.99
2017-01-08T10:35:00.354Z,99.99
2017-01-08T10:36:00.343Z,99.99
2017-01-08T10:37:00.328Z,99.99
2017-01-08T10:38:00.314Z,99.9
2017-01-08T10:39:00.297Z,99.99
2017-01-08T10:40:00.289Z,99.99
2017-01-08T10:41:00.269Z,99.99
2017-01-08T10:42:00.258Z,99.99
2017-01-08T10:43:00.246Z,99.99
2017-01-08T10:44:00.227Z,99.99
2017-01-08T10:45:00.214Z,98.86
2017-01-08T10:46:00.586Z,99.05
2017-01-08T10:47:00.188Z,98.29
2017-01-08T10:48:00.170Z,97.91
2017-01-08T10:49:00.157Z,98.29
2017-01-08T10:50:00.143Z,97.06
2017-01-08T10:51:00.129Z,96.78
2017-01-08T10:52:00.115Z,96.59
2017-01-08T10:53:00.100Z,97.34
2017-01-08T10:54:00.087Z,98.29
2017-01-08T10:55:00.072Z,98.67
2017-01-08T10:56:00.058Z,98.29
2017-01-08T10:57:00.047Z,98.96
2017-01-08T10:58:00.030Z,98.96
2017-01-08T10:59:00.015Z,98.96
2017-01-08T11:00:00.003Z,98.2
2017-01-08T11:00:59.987Z,96.02
2017-01-08T11:01:59.975Z,94.98
2017-01-08T11:02:59.958Z,94.7
2017-01-08T11:03:59.944Z,94.98
2017-01-08T11:04:59.931Z,96.78
2017-01-08T11:05:59.921Z,97.63
2017-01-08T11:06:59.901Z,97.91
2017-01-08T11:07:59.893Z,98.48
2017-01-08T11:08:59.875Z,98.48
2017-01-08T11:09:59.863Z,98.58
2017-01-08T11:10:59.845Z,98.67
2017-01-08T11:11:59.833Z,98.39
2017-01-08T11:12:59.819Z,98.67
2017-01-08T11:13:59.824Z,98.29
2017-01-08T11:14:59.789Z,98.48
2017-01-08T11:15:59.777Z,98.86
2017-01-08T11:16:59.759Z,98.58
2017-01-08T11:17:59.746Z,99.52
2017-01-08T11:18:59.732Z,99.33
2017-01-08T11:19:59.718Z,98.96
2017-01-08T11:20:59.704Z,98.86
2017-01-08T11:21:59.689Z,99.33
2017-01-08T11:22:59.676Z,99.43
2017-01-08T11:23:59.662Z,99.15
2017-01-08T11:24:59.654Z,99.33
2017-01-08T11:25:59.633Z,99.24
2017-01-08T11:26:59.621Z,99.33
2017-01-08T11:27:59.604Z,99.24
2017-01-08T11:28:59.590Z,99.8
2017-01-08T11:29:59.577Z,99.71
2017-01-08T11:30:59.564Z,99.71
2017-01-08T11:31:59.547Z,99.33
2017-01-08T11:32:59.534Z,99.99
2017-01-08T11:33:59.521Z,99.71
2017-01-08T11:34:59.509Z,99.9
2017-01-08T11:35:59.490Z,99.99
2017-01-08T11:36:59.477Z,99.71
2017-01-08T11:37:59.464Z,99.43
2017-01-08T11:38:59.448Z,98.67
2017-01-08T11:39:59.436Z,99.15
2017-01-08T11:40:59.420Z,99.38
2017-01-08T11:41:59.406Z,99.38
2017-01-08T11:42:59.394Z,99.29
2017-01-08T11:43:59.377Z,99.19
2017-01-08T11:44:59.364Z,99.19
2017-01-08T11:45:59.352Z,99.01
2017-01-08T11:46:59.337Z,99.66
2017-01-08T11:47:59.323Z,99.38
2017-01-08T11:48:59.307Z,98.63
2017-01-08T11:49:59.296Z,98.63
2017-01-08T11:50:59.285Z,98.63
2017-01-08T11:51:59.265Z,98.44
2017-01-08T11:52:59.251Z,97.96
2017-01-08T11:53:59.238Z,98.63
2017-01-08T11:54:59.637Z,99.1
2017-01-08T11:55:59.210Z,98.72
2017-01-08T11:56:59.195Z,98.82
2017-01-08T11:57:59.182Z,98.82
2017-01-08T11:58:59.168Z,99.38
2017-01-08T11:59:59.153Z,99.29
2017-01-08T12:00:59.141Z,98.82
2017-01-08T12:01:59.124Z,98.53
2017-01-08T12:02:59.112Z,98.53
2017-01-08T12:03:59.098Z,98.25
2017-01-08T12:04:59.083Z,97.3
2017-01-08T12:05:59.070Z,96.83
2017-01-08T12:06:59.056Z,96.16
2017-01-08T12:07:59.043Z,96.54
2017-01-08T12:08:59.027Z,96.12
2017-01-08T12:09:59.016Z,95.26
2017-01-08T12:10:58.999Z,96.02
2017-01-08T12:11:58.989Z,96.02
2017-01-08T12:12:58.974Z,96.4
2017-01-08T12:13:58.957Z,96.21
2017-01-08T12:14:58.952Z,96.5
2017-01-08T12:15:58.936Z,96.45
2017-01-08T12:16:58.916Z,97.11
2017-01-08T12:17:58.901Z,97.2
2017-01-08T12:18:58.889Z,97.02
2017-01-08T12:19:58.875Z,97.2
2017-01-08T12:20:58.863Z,97.49
2017-01-08T12:21:58.847Z,97.39
2017-01-08T12:22:58.833Z,97.49
2017-01-08T12:23:58.820Z,97.87
2017-01-08T12:24:58.805Z,97.11
2017-01-08T12:25:58.792Z,97.39
2017-01-08T12:26:58.776Z,97.77
2017-01-08T12:27:58.762Z,97.87
2017-01-08T12:28:58.748Z,97.02
2017-01-08T12:29:58.734Z,96.16
2017-01-08T12:30:58.722Z,95.64
2017-01-08T12:31:58.707Z,96.02
2017-01-08T12:32:58.697Z,96.02
2017-01-08T12:33:58.678Z,96.59
2017-01-08T12:34:58.664Z,95.64
2017-01-08T12:35:58.650Z,95.55
2017-01-08T12:36:58.637Z,95.45
2017-01-08T12:37:59.009Z,95.83
2017-01-08T12:38:58.611Z,96.31
2017-01-08T12:39:58.594Z,96.5
2017-01-08T12:40:58.578Z,96.59
2017-01-08T12:41:58.566Z,96.21
2017-01-08T12:42:58.554Z,96.97
2017-01-08T12:43:58.538Z,96.5
2017-01-08T12:44:58.523Z,95.64
2017-01-08T12:45:58.509Z,97.25
2017-01-08T12:46:58.495Z,97.34
2017-01-08T12:47:58.481Z,97.06
2017-01-08T12:48:58.467Z,97.53
2017-01-08T12:49:58.456Z,97.91
2017-01-08T12:50:58.470Z,97.82
2017-01-08T12:51:58.424Z,97.77
2017-01-08T12:52:58.411Z,97.3